Time;durP1;ratioP1;P1;durP2;ratioP2;P2;SDS_P1;SDS_P2;PMS_P1;PMS_P2;Temp;Humidity;BMP_temperature;BMP_pressure;BME280_temperature;BME280_humidity;BME280_pressure;Samples;Min_cycle;Max_cycle;Signal;HPM_P1;HPM_P2
2021/12/25 00:00:12;;;;;;;4.85;2.22;;;8.10;85.40;;;6.44;100.00;94909.53;4899492;29;20118;-65
2021/12/25 00:02:38;;;;;;;4.05;3.00;;;8.10;85.30;;;6.43;100.00;94907.91;4910410;29;20044;-65
2021/12/25 00:05:04;;;;;;;3.53;2.40;;;8.10;85.30;;;6.43;100.00;94915.75;4930577;29;20082;-65
2021/12/25 00:07:30;;;;;;;4.47;2.40;;;8.10;85.30;;;6.44;100.00;94915.56;4933134;28;20432;-65
2021/12/25 00:09:57;;;;;;;3.58;2.22;;;8.20;85.10;;;6.45;100.00;94911.16;4930978;29;20102;-65
2021/12/25 00:12:24;;;;;;;3.20;2.00;;;8.20;84.80;;;6.44;100.00;94914.75;4916441;29;20059;-65
2021/12/25 00:14:50;;;;;;;4.10;2.10;;;8.10;85.00;;;6.42;100.00;94917.56;4896386;29;20044;-65
2021/12/25 00:17:15;;;;;;;3.85;2.15;;;8.10;85.20;;;6.42;100.00;94911.53;4916131;29;20471;-65
2021/12/25 00:19:41;;;;;;;2.60;1.90;;;8.10;85.10;;;6.41;100.00;94915.16;4923171;29;20059;-65
2021/12/25 00:22:07;;;;;;;3.45;2.20;;;8.10;85.20;;;6.40;100.00;94913.53;4929912;29;20523;-65
2021/12/25 00:24:33;;;;;;;3.72;2.25;;;8.10;85.30;;;6.40;100.00;94914.34;4921403;29;20062;-65
2021/12/25 00:27:06;;;;;;;4.10;2.00;;;8.10;85.40;;;6.38;100.00;94905.09;4930395;29;20067;-64
2021/12/25 00:34:36;;;;;;;4.25;2.38;;;8.00;85.80;;;6.38;100.00;94871.94;4914760;29;20035;-64
2021/12/25 00:37:02;;;;;;;5.72;2.28;;;8.10;85.90;;;6.36;100.00;94884.38;4910691;29;20036;-64
2021/12/25 00:39:30;;;;;;;3.28;2.00;;;8.00;86.00;;;6.35;100.00;94880.16;4930699;28;20522;-64
2021/12/25 00:41:57;;;;;;;4.22;2.25;;;8.10;86.00;;;6.36;100.00;94888.81;4911555;29;20551;-65
2021/12/25 00:44:23;;;;;;;3.72;2.22;;;8.10;86.20;;;6.35;100.00;94905.47;4927470;29;20435;-64
2021/12/25 00:46:49;;;;;;;3.28;2.00;;;8.00;86.40;;;6.34;100.00;94907.28;4900605;29;20046;-64
2021/12/25 00:49:15;;;;;;;4.10;2.30;;;8.10;86.30;;;6.34;100.00;94909.88;4911734;29;20036;-63
2021/12/25 00:51:40;;;;;;;4.45;2.40;;;8.10;86.30;;;6.32;100.00;94905.81;4924670;29;20046;-64
2021/12/25 00:54:06;;;;;;;4.97;2.05;;;8.00;86.70;;;6.30;100.00;94900.00;4926921;29;20424;-64
2021/12/25 00:56:32;;;;;;;3.95;2.20;;;8.00;86.80;;;6.29;100.00;94907.03;4930492;29;20032;-64
2021/12/25 00:58:58;;;;;;;3.88;2.40;;;8.00;86.70;;;6.29;100.00;94896.56;4929824;29;20430;-64
2021/12/25 01:01:23;;;;;;;3.38;2.10;;;8.00;86.90;;;6.28;100.00;94894.97;4915907;29;20142;-64
2021/12/25 01:03:49;;;;;;;4.18;2.50;;;7.90;87.00;;;6.27;100.00;94897.78;4917758;29;20035;-64
2021/12/25 01:06:15;;;;;;;7.25;2.55;;;7.90;87.20;;;6.26;100.00;94894.34;4932111;29;20050;-65
2021/12/25 01:08:41;;;;;;;3.53;2.40;;;8.00;87.10;;;6.26;100.00;94893.53;4929492;29;20029;-64
2021/12/25 01:11:07;;;;;;;5.82;2.40;;;8.00;87.10;;;6.24;100.00;94890.31;4917504;29;20451;-64
2021/12/25 01:13:38;;;;;;;4.45;2.20;;;7.90;87.10;;;6.24;100.00;94885.09;4918443;28;20590;-64
2021/12/25 01:39:19;;;;;;;5.03;2.80;;;8.00;86.80;;;6.22;100.00;94900.16;4913575;29;20040;-65
2021/12/25 01:49:52;;;;;;;5.00;2.70;;;8.10;86.50;;;6.24;100.00;94892.94;4912953;29;20376;-64
2021/12/25 01:52:21;;;;;;;5.15;2.80;;;8.10;86.60;;;6.24;100.00;94890.31;4913262;29;20032;-64
2021/12/25 01:54:46;;;;;;;4.38;2.70;;;8.10;86.50;;;6.25;100.00;94886.72;4927997;29;20040;-64
2021/12/25 01:57:12;;;;;;;4.60;2.60;;;8.20;86.40;;;6.24;100.00;94891.13;4883225;29;20051;-64
2021/12/25 01:59:38;;;;;;;3.70;2.72;;;8.20;86.30;;;6.24;100.00;94890.31;4923117;29;20040;-64
2021/12/25 02:02:03;;;;;;;4.90;2.97;;;8.20;86.40;;;6.24;100.00;94890.31;4925928;29;20123;-64
2021/12/25 02:04:29;;;;;;;4.15;2.85;;;8.10;86.30;;;6.24;100.00;94883.28;4897579;29;20063;-64
2021/12/25 02:06:55;;;;;;;4.65;2.70;;;8.10;86.30;;;6.24;100.00;94882.50;4894265;29;20083;-64
2021/12/25 02:09:21;;;;;;;4.55;3.10;;;8.10;86.30;;;6.23;100.00;94886.09;4897129;29;20028;-65
2021/12/25 02:11:46;;;;;;;4.07;2.83;;;8.20;86.20;;;6.23;100.00;94886.09;4926636;29;20062;-64
2021/12/25 02:14:12;;;;;;;4.15;2.72;;;8.20;86.20;;;6.23;100.00;94886.91;4915563;29;20464;-64
2021/12/25 02:16:54;;;;;;;4.82;2.92;;;8.10;86.30;;;6.24;100.00;94883.28;4918894;29;20526;-64
2021/12/25 02:19:44;;;;;;;5.35;3.25;;;8.20;86.30;;;6.22;100.00;94884.50;4913956;29;20854;-65
2021/12/25 02:22:09;;;;;;;5.00;2.80;;;8.10;86.30;;;6.22;100.00;94884.50;4923301;29;20530;-64
2021/12/25 02:24:36;;;;;;;4.60;3.10;;;8.10;86.50;;;6.22;100.00;94884.50;4918894;29;20587;-63
2021/12/25 02:27:03;;;;;;;4.72;2.88;;;8.10;86.60;;;6.21;100.00;94878.47;4889745;29;20142;-63
2021/12/25 02:29:29;;;;;;;4.13;2.90;;;8.10;86.60;;;6.21;100.00;94885.50;4912255;29;20531;-63
2021/12/25 02:31:56;;;;;;;8.45;3.28;;;8.10;86.70;;;6.21;100.00;94885.50;4898251;29;20056;-63
2021/12/25 02:34:21;;;;;;;3.90;2.97;;;8.10;86.70;;;6.20;100.00;94879.47;4896731;29;20032;-63
2021/12/25 02:36:47;;;;;;;5.40;3.17;;;8.10;86.50;;;6.21;100.00;94877.66;4904600;29;20209;-64
2021/12/25 02:39:13;;;;;;;4.72;3.20;;;8.10;86.50;;;6.21;100.00;94877.66;4927302;28;20040;-64
2021/12/25 02:41:38;;;;;;;7.00;3.20;;;8.10;86.40;;;6.20;100.00;94876.03;4923644;29;20056;-64
2021/12/25 02:44:06;;;;;;;5.47;3.38;;;8.10;86.70;;;6.20;100.00;94870.81;4896461;29;20028;-64
2021/12/25 02:46:32;;;;;;;6.22;3.47;;;8.00;86.60;;;6.19;100.00;94869.22;4912190;29;20073;-64
2021/12/25 02:48:59;;;;;;;7.03;3.75;;;8.10;86.50;;;6.19;100.00;94861.38;4929277;29;20130;-64
2021/12/25 02:51:25;;;;;;;5.75;3.80;;;8.10;86.60;;;6.19;100.00;94858.78;4927501;29;20127;-64
2021/12/25 02:53:50;;;;;;;6.40;3.60;;;8.10;86.50;;;6.18;100.00;94859.78;4912726;28;20032;-64
2021/12/25 02:56:16;;;;;;;7.63;4.30;;;8.10;86.40;;;6.15;100.00;94855.75;4911843;29;20058;-64
2021/12/25 02:58:42;;;;;;;6.93;4.00;;;8.00;86.80;;;6.14;100.00;94854.94;4911641;29;20035;-63
2021/12/25 03:01:14;;;;;;;6.85;4.20;;;8.10;86.70;;;6.14;100.00;94862.75;4928858;29;20042;-64
2021/12/25 03:03:39;;;;;;;6.18;4.20;;;8.00;86.70;;;6.14;100.00;94848.91;4899160;29;20111;-64
2021/12/25 03:06:06;;;;;;;6.90;4.63;;;8.10;86.50;;;6.13;100.00;94845.50;4911353;29;20445;-64
2021/12/25 03:08:32;;;;;;;6.72;4.43;;;8.10;86.50;;;6.11;100.00;94847.50;4927363;29;20035;-64
2021/12/25 03:10:58;;;;;;;7.25;4.90;;;8.10;86.40;;;6.10;100.00;94853.69;4907668;29;20067;-64
2021/12/25 03:13:36;;;;;;;5.15;4.15;;;8.10;86.40;;;6.10;100.00;94855.47;4920942;29;20131;-67
2021/12/25 03:16:03;;;;;;;5.72;4.45;;;8.10;86.30;;;6.09;100.00;94859.91;4913043;29;20180;-64
2021/12/25 03:18:33;;;;;;;5.78;4.55;;;8.10;86.40;;;6.09;100.00;94859.91;4927122;29;20040;-64
2021/12/25 03:21:02;;;;;;;6.30;4.65;;;8.10;86.40;;;6.09;100.00;94865.13;4916003;29;20520;-63
2021/12/25 03:23:28;;;;;;;6.60;4.75;;;8.10;86.40;;;6.09;100.00;94859.91;4911650;29;20033;-64
2021/12/25 03:25:56;;;;;;;6.97;4.97;;;8.10;86.30;;;6.09;100.00;94844.25;4923502;29;20031;-64
2021/12/25 03:28:24;;;;;;;5.95;4.70;;;8.10;86.30;;;6.08;100.00;94850.47;4896311;29;20048;-64
2021/12/25 03:30:50;;;;;;;5.93;4.80;;;8.10;86.40;;;6.07;100.00;94856.69;4911963;29;20044;-63
2021/12/25 03:33:18;;;;;;;8.65;5.30;;;8.10;86.30;;;6.06;100.00;94857.69;4900182;29;20072;-63
2021/12/25 03:35:44;;;;;;;7.32;5.35;;;8.00;86.30;;;6.05;100.00;94857.88;4916031;29;20046;-63
2021/12/25 03:38:13;;;;;;;9.13;5.50;;;8.00;86.50;;;6.02;100.00;94848.63;4925888;29;20036;-64
2021/12/25 03:40:39;;;;;;;6.90;5.22;;;7.90;86.70;;;6.04;100.00;94856.25;4915943;29;20124;-64
2021/12/25 03:43:05;;;;;;;6.43;4.78;;;8.00;86.70;;;6.03;100.00;94847.63;4899981;29;20391;-63
2021/12/25 03:45:32;;;;;;;7.40;5.30;;;8.00;86.60;;;6.03;100.00;94855.44;4915205;29;20044;-64
2021/12/25 03:58:59;;;;;;;6.15;4.70;;;7.90;86.70;;;6.01;100.00;94840.97;4931932;29;20046;-63
2021/12/25 04:01:41;;;;;;;9.45;4.80;;;7.90;86.60;;;6.01;100.00;94831.34;4933666;28;20407;-64
2021/12/25 04:04:15;;;;;;;5.75;4.72;;;7.90;86.60;;;5.99;100.00;94835.97;4920052;29;20063;-64
2021/12/25 04:06:53;;;;;;;7.93;5.55;;;7.90;86.60;;;5.99;100.00;94824.72;4916582;29;20040;-64
2021/12/25 04:09:30;;;;;;;6.53;4.93;;;7.80;86.90;;;5.96;100.00;94818.06;4917140;29;20507;-64
2021/12/25 04:12:02;;;;;;;8.90;5.35;;;7.80;87.10;;;5.95;100.00;94832.13;4917176;29;20388;-64
2021/12/25 04:14:28;;;;;;;7.47;4.97;;;7.80;87.20;;;5.95;100.00;94831.31;4909509;29;20028;-64
2021/12/25 04:16:54;;;;;;;7.32;5.07;;;7.80;87.20;;;5.96;100.00;94825.91;4916062;29;20036;-64
2021/12/25 04:19:20;;;;;;;7.18;5.22;;;7.80;87.20;;;5.98;100.00;94826.50;4900777;29;20434;-67
2021/12/25 04:21:54;;;;;;;6.72;5.03;;;7.90;87.10;;;5.99;100.00;94819.50;4899130;29;20526;-65
2021/12/25 04:24:21;;;;;;;7.18;5.15;;;7.90;86.90;;;6.00;100.00;94810.66;4915502;29;20111;-64
2021/12/25 04:26:48;;;;;;;7.03;5.03;;;7.90;86.70;;;6.00;100.00;94810.66;4915253;29;20031;-64
2021/12/25 05:01:51;;;;;;;8.25;4.60;;;7.90;86.90;;;6.02;100.00;94790.41;4905154;28;20050;-64
2021/12/25 05:04:28;;;;;;;6.90;4.57;;;8.00;86.80;;;6.04;100.00;94797.03;4918304;29;20035;-64
2021/12/25 05:06:54;;;;;;;5.40;4.28;;;8.00;86.80;;;6.05;100.00;94798.63;4910003;29;20044;-64
2021/12/25 05:09:20;;;;;;;6.20;4.75;;;8.00;86.70;;;6.06;100.00;94800.25;4913943;29;20055;-65
2021/12/25 05:11:46;;;;;;;7.60;4.55;;;8.00;86.60;;;6.06;100.00;94808.09;4902019;29;20040;-64
2021/12/25 05:14:11;;;;;;;5.28;4.22;;;8.10;86.50;;;6.08;100.00;94795.66;4910093;29;20047;-64
2021/12/25 05:16:37;;;;;;;9.02;4.88;;;8.10;86.50;;;6.09;100.00;94794.66;4916688;29;20500;-64
2021/12/25 05:19:03;;;;;;;7.22;4.60;;;8.10;86.50;;;6.09;100.00;94786.81;4919113;28;20098;-64
2021/12/25 05:21:29;;;;;;;6.32;4.97;;;8.10;86.50;;;6.11;100.00;94797.88;4951922;28;20043;-64
2021/12/25 05:23:55;;;;;;;6.57;4.78;;;8.10;86.50;;;6.11;100.00;94800.50;4898243;29;20040;-64
2021/12/25 05:26:20;;;;;;;8.02;5.95;;;8.10;86.50;;;6.11;100.00;94810.09;4913083;29;20051;-64
2021/12/25 05:28:56;;;;;;;8.40;6.22;;;8.10;86.40;;;6.11;100.00;94799.66;4927013;29;20508;-64
2021/12/25 05:31:22;;;;;;;7.93;6.47;;;8.10;86.50;;;6.09;100.00;94799.88;4920662;29;20040;-64
2021/12/25 05:33:48;;;;;;;10.40;6.80;;;8.10;86.70;;;6.08;100.00;94800.88;4909589;29;20040;-64
2021/12/25 05:36:14;;;;;;;7.80;6.22;;;8.00;86.80;;;6.07;100.00;94788.81;4911811;29;20112;-64
2021/12/25 05:38:40;;;;;;;8.32;5.80;;;8.00;86.90;;;6.05;100.00;94785.59;4915568;29;20050;-64
2021/12/25 05:41:05;;;;;;;7.97;6.22;;;7.90;86.90;;;6.03;100.00;94786.78;4916306;29;20055;-64
2021/12/25 05:43:31;;;;;;;7.68;6.00;;;7.80;87.10;;;6.02;100.00;94785.97;4915238;28;20040;-64
2021/12/25 05:45:57;;;;;;;8.05;6.53;;;7.90;87.00;;;6.02;100.00;94780.75;4914034;29;20032;-64
2021/12/25 05:48:23;;;;;;;8.55;6.07;;;7.90;86.90;;;6.01;100.00;94784.38;4915925;29;20055;-64
2021/12/25 05:50:48;;;;;;;7.13;5.32;;;7.80;86.90;;;5.96;100.00;94784.16;4900747;29;20040;-64
2021/12/25 05:53:15;;;;;;;7.20;4.70;;;7.70;87.20;;;5.93;100.00;94787.16;4913162;29;20527;-64
2021/12/25 05:55:40;;;;;;;6.72;4.60;;;7.70;87.20;;;5.92;100.00;94779.50;4929407;28;22578;-64
2021/12/25 05:58:07;;;;;;;6.78;4.35;;;7.70;87.20;;;5.89;100.00;94788.50;4905087;29;20107;-64
2021/12/25 06:00:34;;;;;;;4.80;3.53;;;7.60;87.00;;;5.87;100.00;94793.06;4912984;29;20040;-64
2021/12/25 06:03:00;;;;;;;6.75;4.43;;;7.60;87.00;;;5.89;100.00;94791.09;4898881;29;20527;-64
2021/12/25 06:05:26;;;;;;;7.20;4.60;;;7.70;86.70;;;5.87;100.00;94787.06;4900506;29;20035;-64
2021/12/25 06:07:51;;;;;;;8.00;5.53;;;7.70;86.80;;;5.85;100.00;94787.25;4929955;29;20032;-64
2021/12/25 06:10:17;;;;;;;9.75;7.32;;;7.60;86.90;;;5.85;100.00;94784.63;4912658;29;20043;-64
2021/12/25 06:12:44;;;;;;;11.00;7.38;;;7.60;87.10;;;5.85;100.00;94787.25;4913351;29;20032;-64
2021/12/25 06:15:12;;;;;;;7.53;5.18;;;7.60;87.10;;;5.85;100.00;94774.19;4912617;29;20040;-64
2021/12/25 06:17:38;;;;;;;6.53;4.82;;;7.60;87.10;;;5.83;100.00;94787.44;4927810;28;20087;-64
2021/12/25 06:20:05;;;;;;;8.57;5.60;;;7.60;87.10;;;5.82;100.00;94785.84;4915858;29;20499;-64
2021/12/25 06:22:31;;;;;;;9.00;5.80;;;7.60;87.10;;;5.83;100.00;94789.25;4927395;29;20033;-64
2021/12/25 06:24:56;;;;;;;9.60;5.85;;;7.60;87.10;;;5.84;100.00;94789.06;4913026;29;20084;-64
2021/12/25 06:27:23;;;;;;;7.15;5.15;;;7.70;87.00;;;5.84;100.00;94783.03;4930481;28;20039;-65
2021/12/25 06:29:49;;;;;;;6.03;4.70;;;7.60;86.90;;;5.85;100.00;94789.84;4900108;29;20019;-64
2021/12/25 06:32:14;;;;;;;5.35;4.13;;;7.70;86.80;;;5.86;100.00;94791.47;4912480;29;20468;-64
2021/12/25 06:34:40;;;;;;;4.75;3.97;;;7.70;86.60;;;5.85;100.00;94785.44;4925163;29;20032;-64
2021/12/25 06:37:06;;;;;;;4.88;4.07;;;7.70;86.60;;;5.86;100.00;94791.47;4923710;29;20032;-64
2021/12/25 06:39:33;;;;;;;5.20;4.07;;;7.80;86.50;;;5.88;100.00;94789.47;4905854;29;20052;-64
2021/12/25 06:41:59;;;;;;;6.43;4.10;;;7.80;86.30;;;5.90;100.00;94786.72;4896790;29;20042;-64
2021/12/25 06:44:25;;;;;;;4.82;4.10;;;7.80;86.40;;;5.91;100.00;94789.16;4900478;29;20323;-63
2021/12/25 06:46:55;;;;;;;7.75;4.22;;;7.80;86.20;;;5.91;100.00;94786.53;4924165;29;20059;-67
2021/12/25 06:49:21;;;;;;;4.88;4.22;;;7.90;86.30;;;5.92;100.00;94782.94;4913352;29;20036;-69
2021/12/25 06:51:48;;;;;;;5.30;4.30;;;7.90;86.20;;;5.93;100.00;94784.53;4894817;29;20071;-68
2021/12/25 06:54:14;;;;;;;6.30;5.20;;;7.90;86.20;;;5.93;100.00;94781.94;4909491;29;20035;-63
2021/12/25 06:56:40;;;;;;;7.30;5.85;;;7.90;86.20;;;5.94;100.00;94783.53;4921981;29;20031;-65
2021/12/25 06:59:05;;;;;;;7.15;5.63;;;7.90;86.10;;;5.93;100.00;94784.53;4912730;29;20044;-66
2021/12/25 07:01:31;;;;;;;7.68;5.35;;;7.80;86.20;;;5.92;100.00;94779.50;4898673;28;20062;-64
2021/12/25 07:03:57;;;;;;;13.52;9.82;;;7.80;86.20;;;5.91;100.00;94788.34;4927741;29;20044;-64
2021/12/25 07:06:23;;;;;;;14.23;10.90;;;7.80;86.20;;;5.91;100.00;94791.75;4909898;29;20092;-64
2021/12/25 07:08:49;;;;;;;27.70;23.80;;;7.90;86.20;;;5.91;100.00;94804.81;4890671;29;20067;-64
2021/12/25 07:11:15;;;;;;;34.83;29.00;;;7.90;86.30;;;5.92;100.00;94816.03;4883841;29;20201;-64
2021/12/25 07:13:44;;;;;;;10.40;8.85;;;7.90;86.30;;;5.89;100.00;94806.78;4894469;28;20055;-64
2021/12/25 07:16:10;;;;;;;7.05;6.15;;;7.80;86.20;;;5.89;100.00;94806.78;4893475;29;20028;-64
2021/12/25 07:18:36;;;;;;;12.48;11.18;;;7.80;85.70;;;5.87;100.00;94813.94;4905895;29;20056;-64
2021/12/25 07:21:03;;;;;;;11.35;9.65;;;7.80;85.90;;;5.86;100.00;94809.72;4918182;29;20067;-63
2021/12/25 07:23:28;;;;;;;7.45;5.55;;;7.80;85.90;;;5.85;100.00;94806.31;4893701;29;20440;-64
2021/12/25 07:25:54;;;;;;;6.95;5.05;;;7.80;85.80;;;5.86;100.00;94801.91;4881456;29;20110;-64
2021/12/25 07:28:20;;;;;;;5.97;5.25;;;7.80;85.70;;;5.85;100.00;94801.09;4916320;29;20109;-64
2021/12/25 07:30:46;;;;;;;18.80;15.18;;;7.80;85.60;;;5.85;100.00;94801.09;4919572;29;20529;-64
2021/12/25 07:33:11;;;;;;;10.27;8.10;;;7.90;85.30;;;5.85;100.00;94805.50;4910692;29;20048;-64
2021/12/25 07:35:37;;;;;;;11.98;9.77;;;7.80;85.10;;;5.83;100.00;94803.09;4894127;29;20064;-64
2021/12/25 07:38:03;;;;;;;24.38;21.02;;;7.80;84.90;;;5.81;100.00;94799.88;4914312;29;20086;-64
2021/12/25 07:40:29;;;;;;;31.42;27.55;;;7.80;85.00;;;5.81;100.00;94799.06;4913573;29;20388;-64
2021/12/25 07:42:54;;;;;;;17.95;14.02;;;7.80;85.10;;;5.81;100.00;94794.66;4908954;29;20059;-64
2021/12/25 07:45:21;;;;;;;32.08;27.27;;;7.80;84.80;;;5.82;100.00;94795.47;4913751;29;20495;-64
2021/12/25 07:47:56;;;;;;;29.98;25.25;;;7.80;84.90;;;5.82;100.00;94803.28;4896791;29;20056;-64
2021/12/25 07:50:21;;;;;;;11.43;9.15;;;7.80;85.00;;;5.81;100.00;94793.84;4896276;29;20091;-64
2021/12/25 07:52:47;;;;;;;10.70;8.30;;;7.80;84.70;;;5.80;100.00;94798.25;4902365;29;20135;-63
2021/12/25 07:55:13;;;;;;;13.52;8.77;;;7.80;84.70;;;5.81;100.00;94793.84;4929419;29;20035;-64
2021/12/25 07:57:38;;;;;;;13.65;9.70;;;7.80;84.80;;;5.81;100.00;94794.66;4909467;29;20044;-64
2021/12/25 08:00:07;;;;;;;76.00;55.17;;;7.80;84.90;;;5.82;100.00;94785.03;4910706;29;20559;-63
2021/12/25 08:02:33;;;;;;;29.50;22.05;;;7.80;84.90;;;5.84;100.00;94785.63;4905324;29;20075;-66
2021/12/25 08:04:58;;;;;;;23.17;18.52;;;7.80;84.70;;;5.83;100.00;94786.63;4927114;29;20036;-66
2021/12/25 08:07:24;;;;;;;14.85;11.30;;;7.80;85.10;;;5.82;100.00;94785.84;4893741;28;20460;-66
2021/12/25 08:09:51;;;;;;;11.05;8.27;;;7.80;85.10;;;5.83;100.00;94781.41;4910574;29;20040;-69
2021/12/25 08:12:17;;;;;;;10.32;7.18;;;7.80;85.30;;;5.84;100.00;94780.41;4916173;29;20039;-65
2021/12/25 08:14:43;;;;;;;8.10;6.50;;;7.80;85.20;;;5.85;100.00;94779.41;4910511;29;20036;-64
2021/12/25 08:17:08;;;;;;;8.32;5.68;;;7.80;85.20;;;5.87;100.00;94785.25;4905215;29;20039;-62
2021/12/25 08:19:34;;;;;;;7.22;4.75;;;7.90;85.20;;;5.89;100.00;94785.91;4922411;28;20032;-63
2021/12/25 08:22:00;;;;;;;5.90;4.22;;;7.90;85.00;;;5.89;100.00;94785.91;4931445;29;20039;-63
2021/12/25 08:24:25;;;;;;;4.82;4.20;;;7.80;84.90;;;5.89;100.00;94785.91;4909549;29;20504;-63
2021/12/25 08:26:51;;;;;;;8.10;6.00;;;7.90;85.00;;;5.89;100.00;94796.34;4915153;29;20043;-64
2021/12/25 08:29:17;;;;;;;8.80;5.90;;;7.80;85.20;;;5.89;100.00;94798.94;4923497;29;20650;-64
2021/12/25 08:31:43;;;;;;;7.57;6.03;;;7.80;85.30;;;5.88;100.00;94799.91;4899920;28;20079;-66
2021/12/25 08:34:09;;;;;;;6.93;5.80;;;7.80;85.10;;;5.88;100.00;94799.91;4908133;29;20522;-67
2021/12/25 08:36:35;;;;;;;12.27;10.18;;;7.70;85.30;;;5.89;100.00;94805.97;4923946;29;20060;-67
2021/12/25 08:39:01;;;;;;;10.23;8.27;;;7.80;85.20;;;5.89;100.00;94806.78;4931549;29;20044;-66
2021/12/25 08:41:29;;;;;;;8.13;6.93;;;7.90;85.10;;;5.90;100.00;94808.41;4913211;29;20377;-67
2021/12/25 08:43:59;;;;;;;6.55;5.50;;;7.90;85.00;;;5.91;100.00;94804.81;4921981;29;20157;-67
2021/12/25 08:46:43;;;;;;;5.10;4.35;;;7.90;85.10;;;5.92;100.00;94803.00;4910423;29;20032;-67
2021/12/25 08:49:17;;;;;;;5.90;4.25;;;7.90;85.00;;;5.92;100.00;94793.38;4915885;29;20099;-67
2021/12/25 08:51:43;;;;;;;5.68;4.15;;;7.90;84.80;;;5.94;100.00;94788.75;4913404;29;20048;-67
2021/12/25 08:54:10;;;;;;;5.32;3.97;;;8.00;84.80;;;5.95;100.00;94794.78;4884950;29;20487;-64
2021/12/25 08:56:36;;;;;;;5.32;3.95;;;8.00;84.70;;;5.98;100.00;94789.19;4902166;29;20526;-64
2021/12/25 08:59:02;;;;;;;4.70;4.13;;;8.10;84.60;;;6.00;100.00;94798.41;4914844;29;20082;-65
2021/12/25 09:01:28;;;;;;;6.97;3.95;;;8.10;84.40;;;6.04;100.00;94801.44;4915031;28;20039;-65
2021/12/25 09:03:55;;;;;;;11.40;7.25;;;8.20;84.30;;;6.08;100.00;94800.88;4932318;29;20629;-65
2021/12/25 09:06:20;;;;;;;7.63;5.80;;;8.20;84.20;;;6.13;100.00;94808.13;4912530;29;20040;-65
2021/12/25 09:08:46;;;;;;;6.72;5.05;;;8.30;83.90;;;6.19;100.00;94807.34;4908185;29;20469;-64
2021/12/25 09:11:12;;;;;;;9.30;7.18;;;8.40;83.80;;;6.22;100.00;94809.59;4883193;29;20044;-64
2021/12/25 09:13:38;;;;;;;9.25;7.05;;;8.40;83.50;;;6.27;100.00;94806.38;4912971;29;20040;-64
2021/12/25 09:16:04;;;;;;;9.32;7.50;;;8.50;83.60;;;6.34;100.00;94807.25;4917275;29;20119;-64
2021/12/25 09:18:29;;;;;;;9.75;8.68;;;8.50;83.80;;;6.39;100.00;94802.22;4914615;29;20057;-64
2021/12/25 09:20:55;;;;;;;12.57;10.00;;;8.60;83.70;;;6.43;100.00;94813.91;4922528;29;20118;-64
2021/12/25 09:23:21;;;;;;;9.45;6.80;;;8.60;83.90;;;6.46;100.00;94803.06;4914400;29;20055;-64
2021/12/25 09:25:47;;;;;;;8.43;5.50;;;8.70;83.20;;;6.51;100.00;94808.50;4911474;29;20419;-64
2021/12/25 09:28:13;;;;;;;9.32;6.43;;;8.70;83.10;;;6.54;100.00;94805.50;4914867;29;20418;-64
2021/12/25 09:30:39;;;;;;;7.57;5.55;;;8.70;83.10;;;6.59;100.00;94802.31;4931221;29;20067;-64
2021/12/25 09:33:05;;;;;;;7.43;4.97;;;8.80;83.00;;;6.61;100.00;94798.50;4907354;29;20039;-64
2021/12/25 09:35:32;;;;;;;5.85;4.70;;;8.80;82.70;;;6.66;100.00;94793.47;4917222;29;20044;-63
2021/12/25 09:37:58;;;;;;;4.70;3.97;;;8.90;82.70;;;6.71;100.00;94795.50;4912451;29;20050;-63
2021/12/25 09:40:24;;;;;;;7.53;3.88;;;8.90;82.50;;;6.73;100.00;94793.50;4917973;29;20059;-62
2021/12/25 09:42:50;;;;;;;5.95;3.45;;;8.80;82.30;;;6.73;100.00;94791.69;4926010;28;20131;-62
2021/12/25 09:45:16;;;;;;;4.57;3.67;;;8.80;82.60;;;6.78;100.00;94795.50;4911508;29;20136;-62
2021/12/25 09:47:42;;;;;;;5.30;3.88;;;8.90;82.70;;;6.81;100.00;94790.72;4910989;29;20515;-62
2021/12/25 09:50:09;;;;;;;6.00;3.75;;;8.90;82.60;;;6.83;100.00;94787.91;4912568;29;20184;-62
2021/12/25 09:52:34;;;;;;;3.85;3.08;;;8.90;82.70;;;6.85;100.00;94797.16;4918359;29;20032;-63
2021/12/25 09:55:00;;;;;;;4.32;3.63;;;8.90;82.70;;;6.86;100.00;94798.75;4926597;28;20059;-62
2021/12/25 09:57:26;;;;;;;6.22;4.38;;;8.80;82.70;;;6.86;100.00;94803.19;4890425;29;20059;-62
2021/12/25 09:59:53;;;;;;;7.20;4.82;;;8.80;83.20;;;6.88;100.00;94801.19;4910445;29;20044;-64
2021/12/25 10:02:18;;;;;;;5.95;4.25;;;8.80;83.30;;;6.89;100.00;94800.97;4886837;29;20059;-65
2021/12/25 10:04:54;;;;;;;5.25;3.80;;;8.80;83.60;;;6.93;100.00;94785.69;4896224;29;20051;-65
2021/12/25 10:07:29;;;;;;;6.68;3.75;;;9.00;83.20;;;7.00;100.00;94784.69;4922728;29;20044;-65
2021/12/25 10:10:16;;;;;;;5.05;3.60;;;9.20;82.40;;;7.10;100.00;94784.31;4896918;29;20036;-71
2021/12/25 10:12:49;;;;;;;5.70;3.95;;;9.50;82.10;;;7.19;100.00;94780.50;4901679;28;20210;-68
2021/12/25 10:15:20;;;;;;;5.00;3.78;;;9.50;81.70;;;7.27;100.00;94785.56;4894194;29;20028;-67
2021/12/25 10:17:54;;;;;;;5.03;3.38;;;9.50;82.00;;;7.33;100.00;94789.19;4902002;28;20043;-67
2021/12/25 10:20:31;;;;;;;4.55;3.10;;;9.50;82.10;;;7.36;100.00;94784.34;4915131;29;20456;-67
2021/12/25 10:23:14;;;;;;;4.03;2.50;;;9.40;82.20;;;7.40;99.68;94789.97;4915826;29;20059;-67
2021/12/25 10:25:50;;;;;;;3.55;2.65;;;9.50;82.30;;;7.44;99.49;94790.38;4910652;29;20473;-69
2021/12/25 10:28:22;;;;;;;4.30;3.10;;;9.50;82.30;;;7.48;99.57;94791.59;4910144;29;20157;-69
2021/12/25 10:30:58;;;;;;;3.80;2.70;;;9.60;82.30;;;7.54;99.23;94790.78;4896211;29;20032;-64
2021/12/25 10:33:41;;;;;;;3.78;2.50;;;9.60;82.00;;;7.61;99.65;94784.53;4928302;28;20080;-64
2021/12/25 10:36:30;;;;;;;3.20;2.15;;;9.70;82.00;;;7.68;99.31;94787.94;4921373;29;20058;-69
2021/12/25 10:39:05;;;;;;;2.90;2.10;;;9.80;82.10;;;7.78;99.23;94787.53;4923544;29;20040;-68
2021/12/25 10:41:35;;;;;;;3.75;1.92;;;9.90;81.20;;;7.85;99.24;94785.72;4926425;28;20035;-66
2021/12/25 10:44:19;;;;;;;3.70;1.70;;;10.00;81.10;;;7.93;98.45;94788.13;4882093;29;20476;-66
2021/12/25 10:46:51;;;;;;;3.97;1.73;;;10.10;81.30;;;8.01;98.17;94786.28;4887472;29;20032;-69
2021/12/25 10:49:17;;;;;;;6.28;2.85;;;10.20;80.70;;;8.07;98.70;94788.09;4928966;29;20142;-66
2021/12/25 10:51:43;;;;;;;5.15;3.92;;;10.10;80.90;;;8.09;98.39;94788.69;4898427;29;20044;-68
2021/12/25 10:54:12;;;;;;;10.05;8.43;;;10.10;80.70;;;8.13;98.29;94795.13;4902374;29;20114;-65
2021/12/25 10:56:39;;;;;;;5.15;3.20;;;10.10;80.60;;;8.14;97.82;94801.97;4909868;29;20039;-65
2021/12/25 10:59:14;;;;;;;6.95;5.07;;;10.10;80.50;;;8.17;96.81;94793.72;4908988;29;20036;-65
2021/12/25 11:01:43;;;;;;;9.15;5.22;;;10.10;80.80;;;8.17;96.42;94796.34;4905735;28;20103;-70
2021/12/25 11:04:30;;;;;;;18.88;14.57;;;10.10;80.70;;;8.19;96.71;94804.78;4927500;29;20031;-64
2021/12/25 11:06:56;;;;;;;4.70;2.80;;;10.10;81.10;;;8.16;96.46;94811.25;4921417;29;20411;-67
2021/12/25 11:09:22;;;;;;;2.50;1.70;;;9.90;81.20;;;8.15;96.73;94804.41;4906253;29;20024;-68
2021/12/25 11:12:14;;;;;;;2.38;1.52;;;9.80;80.80;;;8.12;95.91;94802.16;4905076;29;20039;-64
2021/12/25 11:14:40;;;;;;;2.47;1.88;;;9.80;81.70;;;8.10;96.29;94811.25;4916586;29;20039;-68
2021/12/25 11:17:25;;;;;;;3.15;2.00;;;9.80;81.90;;;8.10;96.12;94806.81;4910470;29;20534;-68
2021/12/25 11:19:59;;;;;;;3.28;2.22;;;9.90;81.80;;;8.09;97.00;94812.25;4897051;29;20035;-68
2021/12/25 11:22:53;;;;;;;4.15;2.40;;;9.80;81.80;;;8.06;95.70;94805.63;4885276;29;20084;-63
2021/12/25 11:25:23;;;;;;;5.22;2.92;;;9.70;81.80;;;8.04;97.05;94806.84;4904941;29;20039;-68
2021/12/25 11:27:49;;;;;;;6.97;2.90;;;9.80;81.90;;;8.03;96.67;94800.00;4924217;29;20033;-68
2021/12/25 11:30:18;;;;;;;3.35;2.38;;;9.70;81.90;;;8.02;96.61;94803.63;4912117;29;20043;-65
2021/12/25 11:32:44;;;;;;;3.33;2.50;;;9.70;82.10;;;8.02;96.69;94801.00;4910522;29;20032;-67
2021/12/25 11:35:11;;;;;;;5.28;2.55;;;9.80;82.20;;;8.03;97.39;94811.25;4929219;28;20038;-67
2021/12/25 11:37:37;;;;;;;2.75;2.03;;;9.80;82.10;;;8.04;96.89;94793.75;4920235;29;20116;-67
2021/12/25 11:40:04;;;;;;;4.32;2.95;;;9.80;82.00;;;8.04;97.51;94798.97;4923856;29;20036;-64
2021/12/25 11:42:30;;;;;;;6.30;3.47;;;9.80;82.30;;;8.07;97.18;94801.19;4899391;29;20448;-67
2021/12/25 11:44:56;;;;;;;4.35;3.17;;;9.90;82.10;;;8.08;97.79;94797.56;4924117;29;20040;-64
2021/12/25 11:47:29;;;;;;;7.35;4.80;;;9.90;82.00;;;8.13;97.93;94792.50;4911302;29;20059;-62